Time;durP1;ratioP1;P1;durP2;ratioP2;P2;SDS_P1;SDS_P2;PMS_P1;PMS_P2;Temp;Humidity;BMP_temperature;BMP_pressure;BME280_temperature;BME280_humidity;BME280_pressure;Samples;Min_cycle;Max_cycle;Signal;HPM_P1;HPM_P2
2022/10/13 00:02:21;;;;;;;47.53;32.85;;;15.20;99.90;;;;;;4770601;30;20373;-73
2022/10/13 00:04:46;;;;;;;48.20;34.90;;;15.20;99.90;;;;;;4770824;30;20043;-73
2022/10/13 00:07:12;;;;;;;44.95;31.67;;;15.20;99.90;;;;;;4770339;30;20040;-73
2022/10/13 00:09:38;;;;;;;37.88;29.30;;;15.20;99.90;;;;;;4770793;30;20476;-73
2022/10/13 00:12:04;;;;;;;43.80;32.38;;;15.20;99.90;;;;;;4770569;30;20039;-72
2022/10/13 00:14:30;;;;;;;40.42;29.60;;;15.20;99.90;;;;;;4770497;30;20036;-72
2022/10/13 00:16:56;;;;;;;43.45;30.73;;;15.20;99.90;;;;;;4770713;30;20071;-73
2022/10/13 00:19:22;;;;;;;42.03;30.58;;;15.20;99.90;;;;;;4770777;30;20028;-72
2022/10/13 00:21:47;;;;;;;45.42;32.58;;;15.20;99.90;;;;;;4754270;30;20521;-73
2022/10/13 00:24:13;;;;;;;41.95;31.60;;;15.20;99.90;;;;;;4770277;30;20097;-73
2022/10/13 00:26:39;;;;;;;51.72;33.00;;;15.20;99.90;;;;;;4770647;30;20035;-73
2022/10/13 00:29:06;;;;;;;43.72;31.58;;;15.20;99.90;;;;;;4770137;30;20028;-73
2022/10/13 00:31:32;;;;;;;42.22;31.27;;;15.20;99.90;;;;;;4770601;30;20089;-72
2022/10/13 00:34:00;;;;;;;43.35;31.38;;;15.20;99.90;;;;;;4770588;30;20036;-73
2022/10/13 00:36:26;;;;;;;37.60;28.85;;;15.30;99.90;;;;;;4770515;30;20502;-73
2022/10/13 00:38:52;;;;;;;43.53;33.70;;;15.20;99.90;;;;;;4770460;30;20055;-73
2022/10/13 00:41:20;;;;;;;45.97;34.35;;;15.20;99.90;;;;;;4758081;30;20032;-72
2022/10/13 00:43:56;;;;;;;45.15;32.10;;;15.20;99.90;;;;;;4770131;30;20028;-72
2022/10/13 00:46:24;;;;;;;40.70;31.52;;;15.20;99.90;;;;;;4770246;30;20121;-73
2022/10/13 00:49:05;;;;;;;43.47;33.15;;;15.20;99.90;;;;;;4770434;30;20036;-73
2022/10/13 00:51:35;;;;;;;46.00;33.45;;;15.20;99.90;;;;;;4770190;30;20032;-72
2022/10/13 00:54:04;;;;;;;49.83;34.90;;;15.10;99.90;;;;;;4770460;30;20097;-72
2022/10/13 00:56:30;;;;;;;45.78;35.45;;;15.20;99.90;;;;;;4769882;30;20078;-71
2022/10/13 00:58:59;;;;;;;44.92;33.33;;;15.10;99.90;;;;;;4769776;30;20071;-71
2022/10/13 01:01:24;;;;;;;47.75;34.33;;;15.10;99.90;;;;;;4769612;30;20089;-71
2022/10/13 01:03:51;;;;;;;44.17;35.78;;;15.10;99.90;;;;;;4769859;30;20437;-72
2022/10/13 01:06:17;;;;;;;44.85;32.92;;;15.10;99.90;;;;;;4769271;30;20040;-72
2022/10/13 01:08:43;;;;;;;50.92;35.95;;;15.10;99.90;;;;;;4769428;30;20085;-72
2022/10/13 01:11:27;;;;;;;43.22;34.35;;;15.20;99.90;;;;;;4769971;30;20039;-73
2022/10/13 01:14:11;;;;;;;48.75;36.22;;;15.20;99.90;;;;;;4769323;30;20435;-72
2022/10/13 01:16:57;;;;;;;44.20;34.05;;;15.20;99.90;;;;;;4769784;30;20118;-72
2022/10/13 01:19:57;;;;;;;48.90;35.53;;;15.20;99.90;;;;;;4769801;30;20044;-73
2022/10/13 01:23:00;;;;;;;50.97;39.17;;;15.20;99.90;;;;;;4769347;30;20099;-72
2022/10/13 01:25:59;;;;;;;48.72;38.20;;;15.20;99.90;;;;;;4769203;30;20032;-73
2022/10/13 01:28:59;;;;;;;44.97;35.65;;;15.20;99.90;;;;;;4769583;30;20027;-72
2022/10/13 01:31:37;;;;;;;50.33;38.15;;;15.30;99.90;;;;;;4769287;30;20119;-73
2022/10/13 01:34:19;;;;;;;56.15;38.05;;;15.30;99.90;;;;;;4768841;30;20127;-72
2022/10/13 01:37:23;;;;;;;51.85;37.10;;;15.40;99.90;;;;;;4758746;30;20036;-72
2022/10/13 01:39:58;;;;;;;43.85;33.92;;;15.40;99.90;;;;;;4769145;30;20047;-71
2022/10/13 01:42:33;;;;;;;49.58;34.10;;;15.40;99.90;;;;;;4769356;30;20096;-73
2022/10/13 01:45:01;;;;;;;44.05;32.42;;;15.40;99.90;;;;;;4769089;30;20147;-73
2022/10/13 01:47:29;;;;;;;44.72;33.42;;;15.40;99.90;;;;;;4769550;30;20068;-71
2022/10/13 01:49:56;;;;;;;45.50;32.15;;;15.40;99.90;;;;;;4769472;30;20483;-73
2022/10/13 01:52:29;;;;;;;50.22;36.90;;;15.40;99.90;;;;;;4768965;30;20395;-71
2022/10/13 01:54:55;;;;;;;53.95;41.80;;;15.30;99.90;;;;;;4769668;30;20074;-73
2022/10/13 01:57:31;;;;;;;55.50;42.20;;;15.10;99.90;;;;;;4768841;30;20473;-72
2022/10/13 02:00:08;;;;;;;55.55;43.17;;;15.10;99.90;;;;;;4753205;30;20048;-72
2022/10/13 02:02:44;;;;;;;59.15;45.15;;;15.10;99.90;;;;;;4768686;30;20509;-73
2022/10/13 02:05:49;;;;;;;64.63;46.63;;;15.00;99.90;;;;;;4769213;30;20032;-72
2022/10/13 02:08:36;;;;;;;56.90;44.20;;;15.00;99.90;;;;;;4760404;30;20044;-72
2022/10/13 02:11:20;;;;;;;57.30;45.97;;;15.00;99.90;;;;;;4769320;30;20047;-72
2022/10/13 02:13:58;;;;;;;59.53;46.15;;;15.00;99.90;;;;;;4768799;30;20146;-72
2022/10/13 02:16:29;;;;;;;60.15;44.60;;;15.00;99.90;;;;;;4769282;30;20402;-72
2022/10/13 02:18:56;;;;;;;54.72;42.85;;;15.00;99.90;;;;;;4769355;30;20071;-72
2022/10/13 02:21:22;;;;;;;51.60;42.72;;;15.00;99.90;;;;;;4769239;30;20535;-72
2022/10/13 02:23:49;;;;;;;61.35;45.88;;;15.00;99.90;;;;;;4769040;30;20107;-72
2022/10/13 02:26:19;;;;;;;58.13;43.65;;;14.90;99.90;;;;;;4769002;30;20107;-72
2022/10/13 02:28:45;;;;;;;55.63;42.95;;;14.90;99.90;;;;;;4769461;30;20032;-72
2022/10/13 02:31:11;;;;;;;55.45;42.70;;;14.90;99.90;;;;;;4769128;30;20032;-73
2022/10/13 02:33:36;;;;;;;57.53;42.33;;;14.90;99.90;;;;;;4768780;30;20098;-72
2022/10/13 02:36:03;;;;;;;60.38;43.50;;;14.90;99.90;;;;;;4768977;30;20376;-73
2022/10/13 02:38:28;;;;;;;60.10;47.92;;;14.80;99.90;;;;;;4769077;30;20042;-72
2022/10/13 02:40:54;;;;;;;65.72;49.20;;;14.70;99.90;;;;;;4769594;30;20035;-72
2022/10/13 02:43:20;;;;;;;56.30;47.05;;;14.60;99.90;;;;;;4768830;30;20051;-72
2022/10/13 02:45:46;;;;;;;57.38;44.33;;;14.60;99.90;;;;;;4769065;30;20360;-73
2022/10/13 02:48:11;;;;;;;51.83;41.38;;;14.60;99.90;;;;;;4770141;30;20124;-73
2022/10/13 02:50:37;;;;;;;58.90;43.88;;;14.60;99.90;;;;;;4772592;30;20032;-72
2022/10/13 02:53:03;;;;;;;58.20;44.30;;;14.70;99.90;;;;;;4771876;30;20036;-73
2022/10/13 02:55:29;;;;;;;53.63;42.33;;;14.70;99.90;;;;;;4772135;30;20027;-72
2022/10/13 02:57:55;;;;;;;55.38;41.10;;;14.80;99.90;;;;;;4772001;30;20129;-72
2022/10/13 03:00:21;;;;;;;49.47;41.22;;;14.80;99.90;;;;;;4771695;30;20027;-72
2022/10/13 03:02:48;;;;;;;49.47;39.70;;;14.80;99.90;;;;;;4771370;30;20551;-73
2022/10/13 03:05:14;;;;;;;53.05;40.80;;;14.80;99.90;;;;;;4771970;30;20039;-73
2022/10/13 03:07:39;;;;;;;53.67;42.03;;;14.90;99.90;;;;;;4771943;30;20036;-72
2022/10/13 03:10:05;;;;;;;50.60;39.20;;;14.90;99.90;;;;;;4772001;30;20059;-72
2022/10/13 03:12:31;;;;;;;54.75;41.08;;;14.90;99.90;;;;;;4771179;30;20054;-73
2022/10/13 03:14:57;;;;;;;52.03;40.28;;;14.80;99.90;;;;;;4772102;30;20032;-72
2022/10/13 03:17:23;;;;;;;47.22;36.38;;;14.90;99.90;;;;;;4771599;30;20031;-73
2022/10/13 03:19:48;;;;;;;54.55;37.80;;;14.80;99.90;;;;;;4771904;30;20077;-73
2022/10/13 03:22:17;;;;;;;57.72;42.28;;;14.80;99.90;;;;;;4771564;30;20032;-73
2022/10/13 03:24:42;;;;;;;57.67;42.28;;;14.80;99.90;;;;;;4771558;30;20040;-70
2022/10/13 03:27:09;;;;;;;54.13;42.72;;;14.80;99.90;;;;;;4771615;30;20491;-72
2022/10/13 03:29:35;;;;;;;50.45;42.83;;;14.80;99.90;;;;;;4771302;30;20051;-73
2022/10/13 03:32:01;;;;;;;59.97;45.38;;;14.70;99.90;;;;;;4771504;30;20063;-72
2022/10/13 03:34:26;;;;;;;57.13;43.58;;;14.60;99.90;;;;;;4771164;30;20067;-73
2022/10/13 03:36:55;;;;;;;56.90;44.22;;;14.60;99.90;;;;;;4771363;30;20042;-73
2022/10/13 03:39:21;;;;;;;56.03;45.55;;;14.50;99.90;;;;;;4771361;30;20115;-73
2022/10/13 03:41:46;;;;;;;65.18;50.05;;;14.50;99.90;;;;;;4770694;30;20082;-73
2022/10/13 03:44:12;;;;;;;65.82;48.38;;;14.50;99.90;;;;;;4770802;30;20503;-73
2022/10/13 03:46:38;;;;;;;61.05;48.33;;;14.50;99.90;;;;;;4770814;30;20042;-72
2022/10/13 03:49:05;;;;;;;61.10;47.63;;;14.50;99.90;;;;;;4770525;30;20027;-72
2022/10/13 03:51:31;;;;;;;59.42;47.72;;;14.50;99.90;;;;;;4771115;30;20034;-72
2022/10/13 03:53:57;;;;;;;62.78;47.83;;;14.50;99.90;;;;;;4770728;30;20040;-73
2022/10/13 03:56:25;;;;;;;61.17;48.72;;;14.40;99.90;;;;;;4770622;30;20093;-73
2022/10/13 03:58:56;;;;;;;65.53;49.13;;;14.40;99.90;;;;;;4770502;30;20048;-72
2022/10/13 04:01:24;;;;;;;58.53;46.60;;;14.40;99.90;;;;;;4770873;30;20377;-73
2022/10/13 04:03:52;;;;;;;62.70;48.60;;;14.40;99.90;;;;;;4770659;30;20099;-72
2022/10/13 04:06:18;;;;;;;71.93;52.15;;;14.40;99.90;;;;;;4755063;30;20043;-72
2022/10/13 04:08:44;;;;;;;67.10;50.42;;;14.30;99.90;;;;;;4770454;30;20059;-70
2022/10/13 04:11:13;;;;;;;63.15;51.47;;;14.30;99.90;;;;;;4769764;30;20472;-72
2022/10/13 04:13:42;;;;;;;70.30;50.90;;;14.20;99.90;;;;;;4770075;30;20047;-73
2022/10/13 04:16:17;;;;;;;59.85;48.35;;;14.20;99.90;;;;;;4770555;30;20032;-73
2022/10/13 04:18:43;;;;;;;65.75;51.42;;;14.30;99.90;;;;;;4764683;30;20048;-72
2022/10/13 04:21:13;;;;;;;69.07;52.63;;;14.30;99.90;;;;;;4754581;30;20492;-72
2022/10/13 04:23:39;;;;;;;73.57;52.45;;;14.30;99.90;;;;;;4762792;30;20043;-72
2022/10/13 04:26:05;;;;;;;73.63;55.28;;;14.20;99.90;;;;;;4770637;30;20036;-72
2022/10/13 04:28:34;;;;;;;68.47;52.85;;;14.20;99.90;;;;;;4770408;30;20443;-71
2022/10/13 04:31:01;;;;;;;73.78;53.20;;;14.10;99.90;;;;;;4766542;30;20055;-73
2022/10/13 04:33:27;;;;;;;77.78;54.60;;;14.20;99.90;;;;;;4747751;30;20054;-72
2022/10/13 04:35:53;;;;;;;74.70;56.38;;;14.20;99.90;;;;;;4762906;30;20112;-70
2022/10/13 04:38:19;;;;;;;77.32;54.00;;;14.20;99.90;;;;;;4751976;30;20173;-72
2022/10/13 04:40:45;;;;;;;78.85;55.75;;;14.20;99.90;;;;;;4755832;30;20020;-71
2022/10/13 04:43:11;;;;;;;77.35;55.58;;;14.10;99.90;;;;;;4754790;30;20380;-73
2022/10/13 04:45:36;;;;;;;74.30;53.75;;;14.10;99.90;;;;;;4751104;30;20052;-73
2022/10/13 04:48:02;;;;;;;96.47;64.30;;;14.10;99.90;;;;;;4753701;30;20051;-72
2022/10/13 04:50:28;;;;;;;116.53;62.67;;;13.90;99.90;;;;;;4754578;30;20023;-73
2022/10/13 04:52:59;;;;;;;102.38;60.78;;;13.90;99.90;;;;;;4765350;30;20032;-72
2022/10/13 04:55:26;;;;;;;128.50;62.78;;;13.80;99.90;;;;;;4759411;30;20039;-72
2022/10/13 04:57:51;;;;;;;89.97;56.80;;;13.80;99.90;;;;;;4755633;30;20193;-72
2022/10/13 05:00:17;;;;;;;72.00;54.22;;;13.80;99.90;;;;;;4739903;30;20130;-71
2022/10/13 05:02:43;;;;;;;71.20;51.13;;;13.80;99.90;;;;;;4764868;30;20035;-73
2022/10/13 05:05:09;;;;;;;70.05;52.88;;;13.80;99.90;;;;;;4769755;30;20035;-73
2022/10/13 05:07:35;;;;;;;92.15;56.50;;;13.90;99.90;;;;;;4769494;30;20463;-73
2022/10/13 05:10:01;;;;;;;87.93;58.70;;;13.90;99.90;;;;;;4769554;30;20479;-73
2022/10/13 05:12:27;;;;;;;80.70;55.85;;;13.80;99.90;;;;;;4769655;30;20051;-73
2022/10/13 05:14:53;;;;;;;84.75;54.97;;;13.80;99.90;;;;;;4769792;30;20044;-73
2022/10/13 05:17:19;;;;;;;76.25;51.55;;;13.80;99.90;;;;;;4769527;30;20038;-73
2022/10/13 05:19:45;;;;;;;93.88;56.20;;;13.90;99.90;;;;;;4769685;30;20122;-72
2022/10/13 05:22:10;;;;;;;66.15;49.13;;;13.80;99.90;;;;;;4769501;30;20032;-72
2022/10/13 05:24:40;;;;;;;82.72;51.55;;;13.80;99.90;;;;;;4753394;30;20040;-73
2022/10/13 05:27:10;;;;;;;65.72;48.03;;;13.90;99.90;;;;;;4769519;30;20039;-72
2022/10/13 05:29:36;;;;;;;74.28;49.70;;;13.90;99.90;;;;;;4769523;30;20093;-72
2022/10/13 05:32:03;;;;;;;61.50;48.92;;;13.90;99.90;;;;;;4769334;30;20372;-73
2022/10/13 05:34:29;;;;;;;61.85;46.92;;;14.00;99.90;;;;;;4769009;30;20035;-72
2022/10/13 05:36:55;;;;;;;64.20;47.70;;;14.00;99.90;;;;;;4769363;30;20036;-73
2022/10/13 05:39:21;;;;;;;58.28;47.28;;;14.00;99.90;;;;;;4769317;30;20549;-72
2022/10/13 05:41:47;;;;;;;60.33;47.45;;;14.00;99.90;;;;;;4769450;30;20027;-73
2022/10/13 05:44:19;;;;;;;57.55;46.08;;;14.10;99.90;;;;;;4769584;30;20100;-72
2022/10/13 05:46:52;;;;;;;62.33;47.72;;;14.10;99.90;;;;;;4769342;30;20062;-73
2022/10/13 05:49:18;;;;;;;58.28;46.33;;;14.10;99.90;;;;;;4769246;30;20472;-73
2022/10/13 05:51:47;;;;;;;64.07;47.75;;;14.20;99.90;;;;;;4769336;30;20157;-73
2022/10/13 05:54:23;;;;;;;63.58;48.85;;;14.20;99.90;;;;;;4769167;30;20100;-73
2022/10/13 05:57:01;;;;;;;69.35;50.83;;;14.30;99.90;;;;;;4769134;30;20062;-73
2022/10/13 05:59:31;;;;;;;62.25;46.72;;;14.30;99.90;;;;;;4769395;30;20047;-73
2022/10/13 06:01:57;;;;;;;70.25;51.53;;;14.20;99.90;;;;;;4769057;30;20039;-70
2022/10/13 06:04:52;;;;;;;70.90;53.70;;;14.30;99.90;;;;;;4769143;30;20024;-73
2022/10/13 06:07:19;;;;;;;69.47;53.55;;;14.30;99.90;;;;;;4766771;30;20092;-73
2022/10/13 06:09:45;;;;;;;76.07;56.33;;;14.40;99.90;;;;;;4769069;30;20408;-72
2022/10/13 06:12:10;;;;;;;69.35;53.13;;;14.40;99.90;;;;;;4769159;30;20036;-72
2022/10/13 06:14:36;;;;;;;71.63;54.15;;;14.40;99.90;;;;;;4769103;30;20356;-72
2022/10/13 06:17:05;;;;;;;76.82;52.85;;;14.50;99.90;;;;;;4768898;30;20035;-73
2022/10/13 06:19:31;;;;;;;65.93;49.95;;;14.60;99.90;;;;;;4769068;30;20059;-73
2022/10/13 06:22:04;;;;;;;71.10;50.03;;;14.60;99.90;;;;;;4768973;30;20042;-73
2022/10/13 06:24:30;;;;;;;64.90;49.97;;;14.60;99.90;;;;;;4772264;30;20089;-74
2022/10/13 06:26:56;;;;;;;69.63;50.85;;;14.70;99.90;;;;;;4772500;30;20044;-73
2022/10/13 06:29:22;;;;;;;64.72;52.22;;;14.60;99.90;;;;;;4772330;30;20051;-73
2022/10/13 06:31:48;;;;;;;66.68;52.13;;;14.70;99.90;;;;;;4772136;30;20045;-73
2022/10/13 06:34:14;;;;;;;59.60;48.90;;;14.70;99.90;;;;;;4772427;30;20078;-73
2022/10/13 06:36:43;;;;;;;62.67;49.53;;;14.70;99.90;;;;;;4772009;30;20055;-73
2022/10/13 06:39:10;;;;;;;68.07;49.38;;;14.80;99.90;;;;;;4772158;30;20078;-73
2022/10/13 06:41:36;;;;;;;65.45;50.90;;;14.90;99.90;;;;;;4771965;30;20435;-72
2022/10/13 06:44:02;;;;;;;58.08;46.40;;;14.90;99.90;;;;;;4772322;30;20044;-73
2022/10/13 06:46:28;;;;;;;65.30;48.17;;;14.90;99.90;;;;;;4755873;30;20032;-72
2022/10/13 06:48:54;;;;;;;59.75;47.60;;;14.90;99.90;;;;;;4772294;30;20119;-73
2022/10/13 06:51:21;;;;;;;60.42;46.42;;;15.00;99.90;;;;;;4772215;30;20091;-73
2022/10/13 06:53:48;;;;;;;60.22;47.83;;;15.00;99.90;;;;;;4772179;30;20506;-73
2022/10/13 06:56:14;;;;;;;64.88;46.17;;;15.00;99.90;;;;;;4772178;30;20039;-73
2022/10/13 06:58:40;;;;;;;63.58;48.97;;;15.00;99.90;;;;;;4771925;30;20039;-73
2022/10/13 07:01:06;;;;;;;64.18;48.72;;;15.10;99.90;;;;;;4771525;30;20084;-73
2022/10/13 07:03:32;;;;;;;65.47;50.83;;;15.10;99.90;;;;;;4771362;30;20035;-74
2022/10/13 07:06:02;;;;;;;70.38;52.83;;;15.20;99.90;;;;;;4771228;30;20027;-73
2022/10/13 07:08:29;;;;;;;67.05;50.30;;;15.30;99.90;;;;;;4768391;30;20396;-72
2022/10/13 07:10:54;;;;;;;69.13;48.17;;;15.30;99.90;;;;;;4769117;30;20038;-74
2022/10/13 07:13:20;;;;;;;66.40;49.15;;;15.30;99.90;;;;;;4771548;30;20044;-74
2022/10/13 07:15:46;;;;;;;68.15;50.85;;;15.30;99.90;;;;;;4771374;30;20028;-73
2022/10/13 07:18:12;;;;;;;58.70;48.22;;;15.40;99.90;;;;;;4771047;30;20099;-72
2022/10/13 07:20:37;;;;;;;59.53;47.65;;;15.50;99.90;;;;;;4770988;30;20028;-72
2022/10/13 07:23:03;;;;;;;60.70;47.42;;;15.50;99.90;;;;;;4770820;30;20395;-73
2022/10/13 07:25:29;;;;;;;57.92;46.03;;;15.50;99.90;;;;;;4768458;30;20543;-73
2022/10/13 07:27:58;;;;;;;63.13;47.72;;;15.60;99.90;;;;;;4769111;30;20051;-73
2022/10/13 07:30:24;;;;;;;59.97;46.72;;;15.70;99.90;;;;;;4768836;30;20031;-73
2022/10/13 07:32:50;;;;;;;65.63;50.22;;;15.90;99.90;;;;;;4770774;30;20488;-73
2022/10/13 07:35:16;;;;;;;62.60;48.80;;;16.00;99.90;;;;;;4770014;30;20027;-73
2022/10/13 07:37:42;;;;;;;61.58;48.83;;;16.00;99.90;;;;;;4771418;30;20436;-73
2022/10/13 07:40:09;;;;;;;72.30;49.63;;;16.20;99.90;;;;;;4771241;30;20138;-73
2022/10/13 07:42:35;;;;;;;68.07;46.78;;;16.30;99.90;;;;;;4771310;30;20038;-73
2022/10/13 07:45:00;;;;;;;56.83;43.83;;;16.50;99.90;;;;;;4771239;30;20020;-73
2022/10/13 07:47:27;;;;;;;63.35;47.55;;;16.70;99.90;;;;;;4771290;30;20039;-73
2022/10/13 07:49:54;;;;;;;52.08;42.78;;;16.80;99.90;;;;;;4771428;30;20036;-73
2022/10/13 07:52:20;;;;;;;51.05;39.25;;;16.90;99.90;;;;;;4771103;30;20404;-73
2022/10/13 07:54:46;;;;;;;53.47;41.72;;;16.80;99.90;;;;;;4770573;30;20035;-73
2022/10/13 07:57:15;;;;;;;47.10;36.92;;;16.70;99.90;;;;;;4771027;30;20080;-73
2022/10/13 07:59:41;;;;;;;51.22;39.80;;;16.80;99.90;;;;;;4771100;30;20040;-73
2022/10/13 08:02:11;;;;;;;52.55;39.90;;;16.80;99.90;;;;;;4770715;30;20024;-73
2022/10/13 08:04:38;;;;;;;55.25;43.80;;;16.70;99.90;;;;;;4771190;30;20089;-73
2022/10/13 08:07:05;;;;;;;59.53;44.22;;;16.70;99.90;;;;;;4770537;30;20031;-73
2022/10/13 08:09:31;;;;;;;64.68;43.38;;;16.70;99.90;;;;;;4771284;30;20111;-72
2022/10/13 08:11:57;;;;;;;60.38;45.45;;;16.60;99.90;;;;;;4770718;30;20038;-73
2022/10/13 08:14:23;;;;;;;58.42;42.90;;;16.70;99.90;;;;;;4770833;30;20391;-73
2022/10/13 08:16:49;;;;;;;59.38;44.05;;;16.70;99.90;;;;;;4770277;30;20035;-73
2022/10/13 08:19:17;;;;;;;56.65;42.33;;;16.80;99.90;;;;;;4770360;30;20024;-73
2022/10/13 08:21:45;;;;;;;60.20;42.95;;;16.90;99.90;;;;;;4770438;30;20024;-73
2022/10/13 08:24:14;;;;;;;61.67;45.35;;;16.90;99.90;;;;;;4754613;30;20034;-72
2022/10/13 08:26:41;;;;;;;66.28;44.83;;;16.70;99.90;;;;;;4770843;30;20040;-74
2022/10/13 08:29:07;;;;;;;63.30;45.22;;;16.60;99.90;;;;;;4770226;30;20030;-72
2022/10/13 08:31:33;;;;;;;57.10;44.28;;;16.60;99.90;;;;;;4769896;30;20024;-73
2022/10/13 08:33:59;;;;;;;58.13;43.80;;;16.70;99.90;;;;;;4770340;30;20059;-73
2022/10/13 08:36:25;;;;;;;63.42;43.88;;;16.70;99.90;;;;;;4770488;30;20024;-72
2022/10/13 08:38:52;;;;;;;67.53;47.80;;;16.80;99.90;;;;;;4770065;30;20040;-73
2022/10/13 08:41:19;;;;;;;65.18;47.92;;;16.90;99.90;;;;;;4769932;30;20051;-73
2022/10/13 08:44:10;;;;;;;62.60;47.55;;;16.90;99.90;;;;;;4769992;30;20088;-73
2022/10/13 08:46:48;;;;;;;64.22;46.88;;;17.00;99.90;;;;;;4757421;30;20120;-73
2022/10/13 08:49:15;;;;;;;67.32;49.20;;;17.00;99.90;;;;;;4770257;30;20047;-72
2022/10/13 08:51:42;;;;;;;65.57;46.55;;;17.00;99.90;;;;;;4770146;30;20114;-73
2022/10/13 08:54:14;;;;;;;67.38;47.42;;;17.30;99.90;;;;;;4769878;30;20181;-73
2022/10/13 08:56:42;;;;;;;79.95;46.95;;;17.50;99.90;;;;;;4770164;30;20055;-73
2022/10/13 08:59:15;;;;;;;63.80;46.03;;;17.50;99.90;;;;;;4770013;30;20040;-73
2022/10/13 09:01:42;;;;;;;69.53;47.50;;;17.70;99.90;;;;;;4769790;30;20038;-73
2022/10/13 09:04:19;;;;;;;63.75;47.53;;;17.80;99.90;;;;;;4769787;30;20502;-73
2022/10/13 09:06:53;;;;;;;65.45;45.83;;;17.80;99.90;;;;;;4769887;30;20040;-73
2022/10/13 09:09:19;;;;;;;65.03;45.60;;;18.10;99.90;;;;;;4769364;30;20390;-73
2022/10/13 09:11:49;;;;;;;61.05;46.35;;;18.30;99.90;;;;;;4753701;30;20035;-73
2022/10/13 09:14:21;;;;;;;59.05;44.13;;;18.40;99.90;;;;;;4769738;30;20047;-74
2022/10/13 09:16:47;;;;;;;56.57;40.57;;;18.60;99.90;;;;;;4769769;30;20099;-73
2022/10/13 09:19:22;;;;;;;56.95;39.20;;;18.70;99.90;;;;;;4769821;30;20284;-73
2022/10/13 09:21:49;;;;;;;56.55;40.95;;;18.50;99.90;;;;;;4769931;30;20691;-73
2022/10/13 09:24:20;;;;;;;51.55;39.53;;;18.50;99.90;;;;;;4769362;30;20055;-73
2022/10/13 09:26:48;;;;;;;56.08;39.38;;;18.30;99.90;;;;;;4769774;30;20035;-73
2022/10/13 09:29:20;;;;;;;53.67;39.53;;;18.40;99.90;;;;;;4769182;30;20051;-73
2022/10/13 09:31:46;;;;;;;58.80;40.95;;;18.60;99.90;;;;;;4769488;30;20048;-74
2022/10/13 09:34:18;;;;;;;60.15;39.90;;;18.70;99.90;;;;;;4768946;30;20086;-73
2022/10/13 09:37:02;;;;;;;56.35;41.55;;;18.70;99.90;;;;;;4769006;30;20063;-73
2022/10/13 09:39:30;;;;;;;57.28;40.47;;;18.80;99.90;;;;;;4769066;30;20292;-73
2022/10/13 09:42:19;;;;;;;60.30;43.13;;;18.80;99.90;;;;;;4769207;30;20082;-73
2022/10/13 09:44:47;;;;;;;58.85;41.70;;;18.70;99.90;;;;;;4769290;30;20468;-73
2022/10/13 09:47:20;;;;;;;56.88;40.42;;;18.50;99.90;;;;;;4769038;30;20035;-73
2022/10/13 09:50:17;;;;;;;60.22;41.28;;;18.60;99.90;;;;;;4769017;30;20035;-74
2022/10/13 09:52:46;;;;;;;53.08;38.38;;;18.80;99.90;;;;;;4768053;30;20051;-74
2022/10/13 09:55:34;;;;;;;53.40;37.85;;;18.90;99.90;;;;;;4769153;30;20028;-74
2022/10/13 09:58:18;;;;;;;59.35;40.58;;;19.10;99.90;;;;;;4767931;30;20447;-72
2022/10/13 10:00:45;;;;;;;52.38;38.03;;;19.20;99.90;;;;;;4767656;30;20043;-73
2022/10/13 10:03:29;;;;;;;59.30;38.03;;;18.80;99.90;;;;;;4768943;30;20024;-73
2022/10/13 10:06:11;;;;;;;45.70;35.20;;;19.00;99.90;;;;;;4768104;30;20028;-73
2022/10/13 10:08:51;;;;;;;50.88;35.28;;;18.80;99.90;;;;;;4765059;30;20042;-74
2022/10/13 10:11:29;;;;;;;51.10;36.97;;;18.70;99.90;;;;;;4768689;30;20367;-74
2022/10/13 10:13:56;;;;;;;52.08;36.22;;;18.80;99.90;;;;;;4768909;30;20048;-73
2022/10/13 10:16:30;;;;;;;48.83;36.58;;;18.90;99.90;;;;;;4768782;30;20023;-73
2022/10/13 10:19:16;;;;;;;50.63;35.85;;;19.10;99.90;;;;;;4769168;30;20047;-73
2022/10/13 10:21:57;;;;;;;53.17;36.95;;;19.30;99.90;;;;;;4768759;30;20028;-73
2022/10/13 10:24:37;;;;;;;50.47;36.97;;;19.40;99.90;;;;;;4768816;30;20115;-74
2022/10/13 10:27:13;;;;;;;47.40;36.70;;;19.50;99.90;;;;;;4769469;30;20044;-73
2022/10/13 10:30:00;;;;;;;45.67;34.50;;;19.70;99.90;;;;;;4769048;30;20514;-73
2022/10/13 10:32:50;;;;;;;51.30;37.38;;;19.80;99.90;;;;;;4769039;30;20484;-73
2022/10/13 10:35:30;;;;;;;50.88;37.53;;;19.90;99.90;;;;;;4766940;30;20118;-73
2022/10/13 10:38:07;;;;;;;44.38;33.83;;;20.10;99.90;;;;;;4767329;30;20039;-74
2022/10/13 10:40:57;;;;;;;50.17;35.53;;;20.20;99.90;;;;;;4768224;30;20093;-74
2022/10/13 10:43:52;;;;;;;49.33;33.83;;;20.30;99.90;;;;;;4768191;30;20514;-74
2022/10/13 10:46:22;;;;;;;54.35;36.45;;;20.30;99.90;;;;;;4758405;30;20132;-74
2022/10/13 10:48:50;;;;;;;54.78;37.50;;;20.40;99.90;;;;;;4768179;30;20047;-74
2022/10/13 10:51:16;;;;;;;49.63;36.75;;;20.40;99.90;;;;;;4767831;30;20383;-73
2022/10/13 10:54:02;;;;;;;48.97;36.55;;;20.50;99.90;;;;;;4768121;30;20491;-73
2022/10/13 10:56:39;;;;;;;46.92;34.63;;;20.50;99.90;;;;;;4695330;30;20511;-74
2022/10/13 10:59:36;;;;;;;46.50;35.38;;;20.60;99.90;;;;;;4694325;30;20061;-73
2022/10/13 11:02:44;;;;;;;49.53;36.30;;;20.50;99.90;;;;;;4696130;30;20096;-73
2022/10/13 11:05:10;;;;;;;47.95;32.95;;;20.60;99.90;;;;;;4696207;30;20124;-73
2022/10/13 11:07:42;;;;;;;44.28;34.58;;;20.70;99.90;;;;;;4696143;30;20030;-73
2022/10/13 11:10:15;;;;;;;50.50;36.20;;;20.80;99.90;;;;;;4698930;30;20424;-73
2022/10/13 11:12:53;;;;;;;49.80;37.50;;;20.60;99.90;;;;;;4699204;30;20053;-73
2022/10/13 11:15:29;;;;;;;56.65;35.45;;;20.40;99.90;;;;;;4699351;30;20092;-73
2022/10/13 11:17:56;;;;;;;50.70;34.83;;;20.40;99.90;;;;;;4699083;30;20040;-73
2022/10/13 11:20:24;;;;;;;45.35;33.63;;;20.60;99.90;;;;;;4699412;30;20215;-74
2022/10/13 11:22:59;;;;;;;44.45;34.60;;;20.70;99.90;;;;;;4699186;30;20100;-72
2022/10/13 11:25:43;;;;;;;46.53;33.35;;;20.70;99.90;;;;;;4699112;30;20121;-73
2022/10/13 11:28:21;;;;;;;48.47;34.13;;;20.70;99.90;;;;;;4698838;30;20092;-74
2022/10/13 11:30:51;;;;;;;43.67;32.67;;;20.50;99.90;;;;;;4698903;30;20112;-74
2022/10/13 11:33:35;;;;;;;43.42;34.10;;;20.60;99.90;;;;;;4719349;30;20070;-73
2022/10/13 11:36:40;;;;;;;47.00;33.80;;;20.60;99.90;;;;;;4753307;30;20043;-73
2022/10/13 11:39:12;;;;;;;47.42;33.03;;;20.50;99.90;;;;;;4753204;30;20067;-73
2022/10/13 11:42:17;;;;;;;42.20;33.40;;;20.50;99.90;;;;;;4753103;30;20440;-73
2022/10/13 11:44:51;;;;;;;41.45;30.98;;;20.50;99.90;;;;;;4753095;30;20043;-73
2022/10/13 11:47:41;;;;;;;49.70;32.38;;;20.60;99.90;;;;;;4752998;30;20048;-73
2022/10/13 11:50:33;;;;;;;48.25;32.83;;;20.50;99.90;;;;;;4737261;30;20114;-73
2022/10/13 11:53:11;;;;;;;40.88;28.92;;;20.50;99.90;;;;;;4752974;30;20043;-73
2022/10/13 11:55:50;;;;;;;41.92;28.38;;;20.30;99.90;;;;;;4753080;30;20380;-73
2022/10/13 11:58:25;;;;;;;41.15;30.15;;;20.50;99.90;;;;;;4768562;30;20062;-74
2022/10/13 12:01:01;;;;;;;42.58;31.42;;;20.60;99.90;;;;;;4770367;30;20221;-73
2022/10/13 12:03:40;;;;;;;35.92;29.17;;;20.70;99.90;;;;;;4770644;30;20035;-74
2022/10/13 12:06:32;;;;;;;38.50;29.58;;;20.70;99.90;;;;;;4770700;30;20097;-74
2022/10/13 12:09:06;;;;;;;37.72;28.90;;;20.60;99.90;;;;;;4770416;30;20039;-73
2022/10/13 12:11:35;;;;;;;37.97;29.65;;;20.70;99.90;;;;;;4770623;30;20062;-73
2022/10/13 12:14:21;;;;;;;40.58;29.10;;;20.70;99.90;;;;;;4770133;30;20035;-73
2022/10/13 12:16:58;;;;;;;40.03;31.40;;;20.50;99.90;;;;;;4770329;30;20051;-73
2022/10/13 12:19:26;;;;;;;40.00;29.45;;;20.30;99.90;;;;;;4770404;30;20031;-73
2022/10/13 12:21:55;;;;;;;41.00;29.70;;;20.30;99.90;;;;;;4769496;30;20055;-73
2022/10/13 12:24:28;;;;;;;40.65;28.38;;;20.40;99.90;;;;;;4770313;30;20111;-73
2022/10/13 12:26:55;;;;;;;40.17;29.40;;;20.40;99.90;;;;;;4770354;30;20127;-74
2022/10/13 12:29:26;;;;;;;41.35;29.17;;;20.40;99.90;;;;;;4770152;30;20028;-73
2022/10/13 12:31:54;;;;;;;40.05;27.38;;;20.50;99.90;;;;;;4770251;30;20390;-73
2022/10/13 12:34:26;;;;;;;36.53;27.77;;;20.50;99.90;;;;;;4769979;30;20067;-73
2022/10/13 12:37:02;;;;;;;;;;;20.60;99.90;;;;;;4770510;30;20036;-73
2022/10/13 12:39:31;;;;;;;35.15;26.58;;;20.60;99.90;;;;;;4770000;30;19992;-73
2022/10/13 12:41:58;;;;;;;35.30;29.08;;;20.60;99.90;;;;;;4770190;30;20036;-73
2022/10/13 12:44:29;;;;;;;40.33;26.67;;;20.50;99.90;;;;;;4769952;30;20111;-73
2022/10/13 12:47:02;;;;;;;36.85;29.27;;;20.70;99.90;;;;;;4769903;30;20093;-73
2022/10/13 12:49:33;;;;;;;41.22;30.85;;;20.70;99.90;;;;;;4769913;30;20067;-74